Time;durP1;ratioP1;P1;durP2;ratioP2;P2;SDS_P1;SDS_P2;PMS_P1;PMS_P2;Temp;Humidity;BMP_temperature;BMP_pressure;BME280_temperature;BME280_humidity;BME280_pressure;Samples;Min_cycle;Max_cycle;Signal;HPM_P1;HPM_P2
2023/06/22 00:00:53;;;;;;;6.40;4.97;;;16.80;99.90;;;;;;4975104;28;20667;-73
2023/06/22 00:03:20;;;;;;;9.23;5.22;;;16.80;99.90;;;;;;4979795;28;20199;-74
2023/06/22 00:05:47;;;;;;;7.30;5.38;;;16.80;99.90;;;;;;4994415;28;20222;-74
2023/06/22 00:08:13;;;;;;;7.45;4.60;;;16.90;99.90;;;;;;4994457;28;20217;-75
2023/06/22 00:10:39;;;;;;;6.70;4.80;;;16.90;99.90;;;;;;4977216;28;20642;-75
2023/06/22 00:13:10;;;;;;;7.07;5.35;;;16.90;99.90;;;;;;4994461;28;20175;-74
2023/06/22 00:15:38;;;;;;;10.55;5.75;;;16.90;99.90;;;;;;4994272;28;20219;-74
2023/06/22 00:18:04;;;;;;;10.57;5.60;;;16.90;99.90;;;;;;4994190;28;20693;-74
2023/06/22 00:20:30;;;;;;;9.80;5.00;;;16.90;99.90;;;;;;4994237;28;20163;-74
2023/06/22 00:22:56;;;;;;;6.80;5.47;;;16.90;99.90;;;;;;4995268;28;20187;-74
2023/06/22 00:25:22;;;;;;;11.13;5.65;;;16.90;99.90;;;;;;5004220;28;20234;-75
2023/06/22 00:27:48;;;;;;;8.90;5.63;;;16.90;99.90;;;;;;4999072;28;20579;-75
2023/06/22 00:30:15;;;;;;;6.50;5.35;;;16.90;99.90;;;;;;5005610;28;20644;-75
2023/06/22 00:32:41;;;;;;;12.52;6.07;;;16.90;99.90;;;;;;4994056;28;20557;-76
2023/06/22 00:35:08;;;;;;;7.35;5.55;;;16.80;99.90;;;;;;4993086;28;20175;-76
2023/06/22 00:37:35;;;;;;;9.00;6.05;;;16.90;99.90;;;;;;4993988;28;20199;-76
2023/06/22 00:40:01;;;;;;;10.27;6.40;;;16.90;99.90;;;;;;4994145;28;20194;-76
2023/06/22 00:42:27;;;;;;;11.13;6.20;;;16.90;99.90;;;;;;4993951;28;20211;-73
2023/06/22 00:44:52;;;;;;;12.80;6.75;;;16.90;99.90;;;;;;4993870;28;20229;-75
2023/06/22 00:47:18;;;;;;;10.93;6.35;;;16.90;99.90;;;;;;4993729;28;20646;-74
2023/06/22 00:49:46;;;;;;;10.98;6.38;;;16.90;99.90;;;;;;4994435;28;20207;-75
2023/06/22 00:52:20;;;;;;;9.90;6.53;;;16.90;99.90;;;;;;4994169;28;20198;-76
2023/06/22 00:54:50;;;;;;;9.80;5.40;;;16.90;99.90;;;;;;4993844;28;20187;-76
2023/06/22 00:57:18;;;;;;;9.55;5.68;;;16.90;99.90;;;;;;4994206;28;20379;-76
2023/06/22 00:59:45;;;;;;;9.63;5.88;;;16.90;99.90;;;;;;4994027;28;20229;-75
2023/06/22 01:02:11;;;;;;;11.02;6.00;;;16.80;99.90;;;;;;5002953;28;20207;-75
2023/06/22 01:04:38;;;;;;;12.32;7.47;;;16.90;99.90;;;;;;5003980;28;20294;-74
2023/06/22 01:07:15;;;;;;;9.65;6.93;;;16.80;99.90;;;;;;5003254;28;20203;-74
2023/06/22 01:09:51;;;;;;;10.68;6.68;;;16.80;99.90;;;;;;4996546;28;20175;-75
2023/06/22 01:12:18;;;;;;;10.07;7.20;;;16.90;99.90;;;;;;4994210;28;20634;-76
2023/06/22 01:14:52;;;;;;;12.77;8.02;;;16.80;99.90;;;;;;4994446;28;20175;-75
2023/06/22 01:17:19;;;;;;;13.98;7.35;;;16.80;99.90;;;;;;4993829;28;20231;-75
2023/06/22 01:19:52;;;;;;;12.00;7.00;;;16.80;99.90;;;;;;4993474;28;20296;-75
2023/06/22 01:22:20;;;;;;;12.23;7.10;;;16.70;99.90;;;;;;4993019;28;20694;-79
2023/06/22 01:24:54;;;;;;;13.20;8.35;;;16.80;99.90;;;;;;4993285;28;20190;-76
2023/06/22 01:27:21;;;;;;;12.55;7.25;;;16.80;99.90;;;;;;4993148;28;20199;-77
2023/06/22 01:29:51;;;;;;;10.95;6.38;;;16.80;99.90;;;;;;4982279;28;20176;-65
2023/06/22 01:32:17;;;;;;;9.55;6.50;;;16.80;99.90;;;;;;4992473;28;20179;-65
2023/06/22 01:34:44;;;;;;;11.50;6.43;;;16.70;99.90;;;;;;5006724;28;20175;-64
2023/06/22 01:37:10;;;;;;;10.95;6.40;;;18.60;99.90;;;;;;4997459;28;20175;-64
2023/06/22 01:39:36;;;;;;;13.43;6.70;;;16.70;99.90;;;;;;5010317;28;20228;-63
2023/06/22 01:42:03;;;;;;;9.70;7.00;;;16.70;99.90;;;;;;4999557;28;20257;-64
2023/06/22 01:44:29;;;;;;;17.33;8.35;;;16.70;99.90;;;;;;4993109;28;20183;-64
2023/06/22 01:46:55;;;;;;;16.48;9.70;;;16.70;99.90;;;;;;5006712;28;20190;-64
2023/06/22 01:49:21;;;;;;;17.25;10.38;;;16.70;99.90;;;;;;4995767;28;20190;-63
2023/06/22 01:51:47;;;;;;;19.67;10.43;;;16.70;99.90;;;;;;5011935;28;20206;-63
2023/06/22 01:54:12;;;;;;;15.55;10.25;;;16.70;99.90;;;;;;5004447;28;20600;-64
2023/06/22 01:56:39;;;;;;;14.77;8.70;;;16.70;99.90;;;;;;4992347;28;20680;-66
2023/06/22 01:59:20;;;;;;;16.08;9.23;;;16.70;99.90;;;;;;4992171;28;20669;-64
2023/06/22 02:01:59;;;;;;;14.65;9.18;;;16.70;99.90;;;;;;4991982;28;20233;-64
2023/06/22 02:04:28;;;;;;;14.57;9.40;;;16.70;99.90;;;;;;4992313;28;20199;-64
2023/06/22 02:06:59;;;;;;;17.73;8.82;;;16.70;99.90;;;;;;4992046;28;20187;-64
2023/06/22 02:09:28;;;;;;;18.17;9.98;;;16.70;99.90;;;;;;4992370;28;20186;-63
2023/06/22 02:11:56;;;;;;;15.57;9.55;;;16.70;99.90;;;;;;4992038;28;20186;-63
2023/06/22 02:14:23;;;;;;;18.10;9.27;;;16.70;99.90;;;;;;4992151;28;20177;-64
2023/06/22 02:16:49;;;;;;;23.05;10.57;;;16.70;99.90;;;;;;4991850;28;20301;-64
2023/06/22 02:19:15;;;;;;;18.38;10.40;;;16.70;99.90;;;;;;4992085;28;20179;-64
2023/06/22 02:21:41;;;;;;;17.10;9.98;;;16.70;99.90;;;;;;4991864;28;20571;-63
2023/06/22 02:24:07;;;;;;;16.05;9.63;;;16.70;99.90;;;;;;4991936;28;20168;-63
2023/06/22 02:26:32;;;;;;;15.02;9.02;;;16.70;99.90;;;;;;4991962;28;20171;-64
2023/06/22 02:28:58;;;;;;;15.93;9.15;;;16.70;99.90;;;;;;4991994;28;20175;-63
2023/06/22 02:31:30;;;;;;;15.40;8.73;;;16.70;99.90;;;;;;4991658;28;20175;-63
2023/06/22 02:33:59;;;;;;;13.45;8.68;;;16.70;99.90;;;;;;4991791;28;20182;-63
2023/06/22 02:36:26;;;;;;;16.80;9.57;;;16.70;99.90;;;;;;4991726;28;20167;-64
2023/06/22 02:38:52;;;;;;;13.55;8.80;;;16.70;99.90;;;;;;4991740;28;20179;-65
2023/06/22 02:41:18;;;;;;;15.85;8.98;;;16.70;99.90;;;;;;4991552;28;20325;-63
2023/06/22 02:43:47;;;;;;;14.57;9.52;;;16.70;99.90;;;;;;4991633;28;20261;-63
2023/06/22 02:46:13;;;;;;;12.48;8.80;;;16.60;99.90;;;;;;4991614;28;20692;-63
2023/06/22 02:48:40;;;;;;;15.60;9.02;;;16.60;99.90;;;;;;4991507;28;20186;-63
2023/06/22 02:51:06;;;;;;;14.52;8.50;;;16.60;99.90;;;;;;4991510;28;20246;-64
2023/06/22 02:53:32;;;;;;;12.73;8.93;;;16.60;99.90;;;;;;4991582;28;20163;-65
2023/06/22 02:55:58;;;;;;;12.68;8.57;;;16.60;99.90;;;;;;4991286;28;20653;-64
2023/06/22 02:58:24;;;;;;;13.65;9.23;;;;;;;;;;4996965;28;20175;-63
2023/06/22 03:00:52;;;;;;;15.32;8.95;;;16.60;99.90;;;;;;5002012;28;20198;-64
2023/06/22 03:03:19;;;;;;;15.20;9.73;;;16.60;99.90;;;;;;5008893;28;20245;-64
2023/06/22 03:05:44;;;;;;;13.27;9.13;;;16.60;99.90;;;;;;4997978;28;20630;-64
2023/06/22 03:08:10;;;;;;;16.55;9.05;;;16.70;99.90;;;;;;4997867;28;20226;-63
2023/06/22 03:10:36;;;;;;;14.65;9.80;;;16.70;99.90;;;;;;4997902;28;20179;-63
2023/06/22 03:13:01;;;;;;;14.63;8.43;;;16.70;99.90;;;;;;4997823;28;20186;-64
2023/06/22 03:15:29;;;;;;;12.40;8.57;;;16.70;99.90;;;;;;4997720;28;20182;-63
2023/06/22 03:17:55;;;;;;;14.63;9.13;;;16.60;99.90;;;;;;4997774;28;20669;-64
2023/06/22 03:20:20;;;;;;;13.35;8.77;;;16.60;99.90;;;;;;4997917;28;20182;-64
2023/06/22 03:22:46;;;;;;;14.23;8.57;;;16.60;99.90;;;;;;4997992;28;20218;-65
2023/06/22 03:25:15;;;;;;;12.48;8.80;;;16.60;99.90;;;;;;4997824;28;20510;-64
2023/06/22 03:27:41;;;;;;;14.38;8.60;;;16.60;99.90;;;;;;4997707;28;20171;-63
2023/06/22 03:30:09;;;;;;;14.75;8.65;;;16.60;99.90;;;;;;4997952;28;20185;-63
2023/06/22 03:32:34;;;;;;;12.98;8.57;;;16.60;99.90;;;;;;4997968;28;20237;-63
2023/06/22 03:35:01;;;;;;;13.90;8.60;;;;;;;;;;4997861;28;20171;-64
2023/06/22 03:37:27;;;;;;;14.82;8.57;;;16.50;99.90;;;;;;4997688;28;20626;-64
2023/06/22 03:39:53;;;;;;;13.65;8.68;;;16.50;99.90;;;;;;4997734;28;20306;-64
2023/06/22 03:42:19;;;;;;;12.30;8.63;;;16.50;99.90;;;;;;4997590;28;20294;-64
2023/06/22 03:44:45;;;;;;;14.68;8.60;;;16.50;99.90;;;;;;4997931;28;20233;-64
2023/06/22 03:47:10;;;;;;;13.07;8.63;;;16.50;99.90;;;;;;4997819;28;20272;-63
2023/06/22 03:49:36;;;;;;;14.13;8.18;;;16.40;99.90;;;;;;4989541;28;20663;-62
2023/06/22 03:52:03;;;;;;;13.65;8.40;;;16.40;99.90;;;;;;4993740;28;20182;-64
2023/06/22 03:54:29;;;;;;;14.02;8.30;;;16.40;99.90;;;;;;4997420;28;20251;-64
2023/06/22 03:56:57;;;;;;;18.45;9.15;;;16.40;99.90;;;;;;4997247;28;20179;-64
2023/06/22 03:59:23;;;;;;;13.80;8.52;;;16.40;99.90;;;;;;4997506;28;20221;-63
2023/06/22 04:01:48;;;;;;;14.55;8.10;;;16.40;99.90;;;;;;4997347;28;20215;-63
2023/06/22 04:04:14;;;;;;;15.20;8.27;;;16.40;99.90;;;;;;4997435;28;20190;-63
2023/06/22 04:06:40;;;;;;;15.70;8.40;;;16.30;99.90;;;;;;4997566;28;20222;-63
2023/06/22 04:09:08;;;;;;;12.23;7.93;;;16.30;99.90;;;;;;4994884;28;20651;-63
2023/06/22 04:11:34;;;;;;;15.68;8.25;;;16.30;99.90;;;;;;4994314;28;20182;-63
2023/06/22 04:14:00;;;;;;;11.02;7.45;;;16.20;99.90;;;;;;4994273;28;20286;-63
2023/06/22 04:16:25;;;;;;;11.27;7.93;;;16.20;99.90;;;;;;4994152;28;20294;-63
2023/06/22 04:18:51;;;;;;;13.35;7.97;;;16.20;99.90;;;;;;4994209;28;20962;-63
2023/06/22 04:21:17;;;;;;;11.60;7.95;;;;;;;;;;4994010;28;20195;-64
2023/06/22 04:23:43;;;;;;;13.82;8.38;;;16.20;99.90;;;;;;4994019;28;20179;-63
2023/06/22 04:26:09;;;;;;;11.35;7.75;;;16.20;99.90;;;;;;4994013;28;20175;-63
2023/06/22 04:28:35;;;;;;;12.27;8.15;;;16.20;99.90;;;;;;4994065;28;20707;-63
2023/06/22 04:31:03;;;;;;;13.05;8.10;;;16.20;99.90;;;;;;4994167;28;20195;-63
2023/06/22 04:33:29;;;;;;;10.30;7.93;;;16.20;99.90;;;;;;4993841;28;20217;-63
2023/06/22 04:35:57;;;;;;;13.07;8.40;;;16.20;99.90;;;;;;4994024;28;20673;-63
2023/06/22 04:38:23;;;;;;;13.50;8.52;;;16.20;99.90;;;;;;4993804;28;20634;-63
2023/06/22 04:40:49;;;;;;;11.52;8.13;;;16.20;99.90;;;;;;4993734;28;20189;-63
2023/06/22 04:43:14;;;;;;;14.48;8.48;;;16.20;99.90;;;;;;4993769;28;20179;-64
2023/06/22 04:45:40;;;;;;;13.43;8.20;;;16.30;99.90;;;;;;4993794;28;20194;-63
2023/06/22 04:48:06;;;;;;;10.70;7.43;;;16.30;99.90;;;;;;4993757;28;20198;-64
2023/06/22 04:50:31;;;;;;;11.43;7.88;;;16.30;99.90;;;;;;4993528;28;20682;-65
2023/06/22 04:52:57;;;;;;;11.85;8.02;;;16.20;99.90;;;;;;4993558;28;20273;-64
2023/06/22 04:55:25;;;;;;;9.80;7.72;;;16.30;99.90;;;;;;4991584;28;20175;-66
2023/06/22 04:57:51;;;;;;;11.95;8.73;;;16.30;99.90;;;;;;4982302;28;20185;-65
2023/06/22 05:00:22;;;;;;;12.90;7.88;;;16.30;99.90;;;;;;4993455;28;20171;-63
2023/06/22 05:02:48;;;;;;;9.75;7.63;;;16.30;99.90;;;;;;4983357;28;20218;-65
2023/06/22 05:05:14;;;;;;;11.13;7.63;;;16.20;99.90;;;;;;4993234;28;20179;-64
2023/06/22 05:07:45;;;;;;;13.65;8.48;;;16.40;99.90;;;;;;4993322;28;20171;-64
2023/06/22 05:10:12;;;;;;;11.10;7.57;;;16.40;99.90;;;;;;4993381;28;20651;-69
2023/06/22 05:12:39;;;;;;;11.57;7.88;;;16.40;99.90;;;;;;4994923;28;20172;-69
2023/06/22 05:15:06;;;;;;;13.45;8.27;;;16.40;99.90;;;;;;4993264;28;20257;-65
2023/06/22 05:17:32;;;;;;;16.15;8.55;;;16.40;99.90;;;;;;4992901;28;20277;-65
2023/06/22 05:19:57;;;;;;;11.07;8.23;;;16.40;99.90;;;;;;4992786;28;20183;-65
2023/06/22 05:22:23;;;;;;;12.48;8.10;;;16.50;99.90;;;;;;4992932;28;20221;-66
2023/06/22 05:24:49;;;;;;;13.35;8.35;;;16.50;99.90;;;;;;4975393;28;20698;-65
2023/06/22 05:27:14;;;;;;;10.50;7.57;;;16.60;99.90;;;;;;4992810;28;20518;-64
2023/06/22 05:29:42;;;;;;;11.90;7.85;;;16.60;99.90;;;;;;4991976;28;20262;-64
2023/06/22 05:32:08;;;;;;;11.43;7.93;;;16.60;99.90;;;;;;4992343;28;20175;-65
2023/06/22 05:34:33;;;;;;;10.68;7.57;;;16.60;99.90;;;;;;4992387;28;20174;-64
2023/06/22 05:37:00;;;;;;;12.68;7.93;;;;;;;;;;4992424;28;20577;-64
2023/06/22 05:39:25;;;;;;;12.23;7.72;;;16.70;99.90;;;;;;4992290;28;20167;-65
2023/06/22 05:41:51;;;;;;;11.02;7.72;;;16.80;99.90;;;;;;4992187;28;20218;-65
2023/06/22 05:44:17;;;;;;;12.40;8.25;;;16.80;99.90;;;;;;4992316;28;20655;-63
2023/06/22 05:46:44;;;;;;;13.38;7.78;;;16.90;99.90;;;;;;4992176;28;20177;-64
2023/06/22 05:49:11;;;;;;;13.45;7.85;;;17.00;99.90;;;;;;4992237;28;20234;-64
2023/06/22 05:51:37;;;;;;;14.07;7.93;;;17.00;99.90;;;;;;4992391;28;20179;-62
2023/06/22 05:54:02;;;;;;;12.93;7.82;;;16.90;99.90;;;;;;4992053;28;20187;-63
2023/06/22 05:56:28;;;;;;;13.43;7.78;;;17.00;99.90;;;;;;4992254;28;20183;-63
2023/06/22 05:58:53;;;;;;;10.63;7.05;;;17.00;99.90;;;;;;4992295;28;20638;-63
2023/06/22 06:01:20;;;;;;;13.23;7.60;;;17.10;99.90;;;;;;4992272;28;20207;-62
2023/06/22 06:03:46;;;;;;;11.15;7.22;;;17.20;99.90;;;;;;4991550;28;20183;-63
2023/06/22 06:06:12;;;;;;;9.95;7.75;;;17.30;99.90;;;;;;4991774;28;20205;-63
2023/06/22 06:08:38;;;;;;;10.35;7.13;;;17.30;99.90;;;;;;4991852;28;20179;-63
2023/06/22 06:11:04;;;;;;;11.00;7.68;;;17.40;99.90;;;;;;4992283;28;20209;-63
2023/06/22 06:13:29;;;;;;;9.35;7.35;;;17.50;99.90;;;;;;4991761;28;20254;-63
2023/06/22 06:15:56;;;;;;;12.82;6.57;;;17.60;99.90;;;;;;5006434;28;20220;-64
2023/06/22 06:18:22;;;;;;;10.20;6.53;;;17.70;99.90;;;;;;5006391;28;20179;-67
2023/06/22 06:20:48;;;;;;;11.18;6.93;;;17.70;99.90;;;;;;4991981;28;20182;-68
2023/06/22 06:23:13;;;;;;;8.82;5.82;;;17.80;99.90;;;;;;4999372;28;20237;-67
2023/06/22 06:25:39;;;;;;;7.35;5.18;;;17.90;99.90;;;;;;5010739;28;20257;-68
2023/06/22 06:28:05;;;;;;;7.43;5.47;;;18.00;99.90;;;;;;5011515;28;20589;-67
2023/06/22 06:30:31;;;;;;;8.55;5.25;;;18.10;99.90;;;;;;5011247;28;21081;-67
2023/06/22 06:32:56;;;;;;;8.75;4.72;;;18.10;99.90;;;;;;4994859;28;20167;-68
2023/06/22 06:35:22;;;;;;;6.63;4.43;;;18.20;99.90;;;;;;5012707;28;20201;-74
2023/06/22 06:37:49;;;;;;;8.98;4.65;;;18.30;99.90;;;;;;5014935;28;20167;-68
2023/06/22 06:40:17;;;;;;;9.20;4.75;;;18.20;99.90;;;;;;5010024;28;20205;-75
2023/06/22 06:42:45;;;;;;;6.05;3.97;;;18.30;99.90;;;;;;4994558;28;20218;-74
2023/06/22 06:45:13;;;;;;;5.00;3.88;;;18.30;99.90;;;;;;4992965;28;20176;-74
2023/06/22 06:47:39;;;;;;;9.45;3.95;;;18.30;99.90;;;;;;4992199;28;20258;-71
2023/06/22 06:50:06;;;;;;;6.03;3.63;;;18.40;99.90;;;;;;4991614;28;20507;-71
2023/06/22 06:52:32;;;;;;;7.60;3.90;;;18.50;99.90;;;;;;4991229;28;20187;-72
2023/06/22 06:54:58;;;;;;;7.93;3.95;;;18.50;99.90;;;;;;5011239;28;20179;-69
2023/06/22 06:57:23;;;;;;;8.70;4.30;;;18.60;99.90;;;;;;5011081;28;20663;-69
2023/06/22 06:59:49;;;;;;;6.22;4.10;;;18.60;99.90;;;;;;5008679;28;20194;-70
2023/06/22 07:02:18;;;;;;;6.03;4.10;;;18.70;99.90;;;;;;4992933;28;20302;-70
2023/06/22 07:04:44;;;;;;;5.57;4.03;;;18.80;99.90;;;;;;4990943;28;20186;-69
2023/06/22 07:07:10;;;;;;;5.60;4.15;;;18.90;99.90;;;;;;4983458;28;20667;-72
2023/06/22 07:09:35;;;;;;;12.07;4.40;;;19.00;99.90;;;;;;4985447;28;20179;-71
2023/06/22 07:12:01;;;;;;;7.20;4.25;;;19.10;99.90;;;;;;4991028;28;20171;-70
2023/06/22 07:14:27;;;;;;;5.82;3.92;;;19.10;99.90;;;;;;4991567;28;20175;-67
2023/06/22 07:16:52;;;;;;;4.13;3.70;;;19.10;99.90;;;;;;4990753;28;20304;-69
2023/06/22 07:19:25;;;;;;;7.30;4.15;;;19.20;99.90;;;;;;4991135;28;20167;-68
2023/06/22 07:21:51;;;;;;;6.55;3.75;;;19.10;99.90;;;;;;4990833;28;20207;-69
2023/06/22 07:24:16;;;;;;;10.30;3.95;;;19.10;99.90;;;;;;4990378;28;20662;-67
2023/06/22 07:26:45;;;;;;;10.77;3.70;;;19.20;99.90;;;;;;4990689;28;20198;-67
2023/06/22 07:29:11;;;;;;;7.93;3.80;;;19.30;99.90;;;;;;4990611;28;20696;-67
2023/06/22 07:31:37;;;;;;;5.22;3.22;;;19.20;99.90;;;;;;4991490;28;20175;-68
2023/06/22 07:34:04;;;;;;;5.90;3.47;;;19.30;99.90;;;;;;4990996;28;20187;-68
2023/06/22 07:36:30;;;;;;;5.88;3.42;;;19.40;99.90;;;;;;4991567;28;20179;-67
2023/06/22 07:38:55;;;;;;;5.20;3.70;;;19.40;99.90;;;;;;4998421;28;20171;-68
2023/06/22 07:41:21;;;;;;;6.15;3.33;;;19.50;99.90;;;;;;5009862;28;20194;-68
2023/06/22 07:43:46;;;;;;;8.52;3.90;;;19.80;99.90;;;;;;4999119;28;20222;-71
2023/06/22 07:46:12;;;;;;;5.13;3.60;;;19.70;99.90;;;;;;4994159;28;20281;-67
2023/06/22 07:48:39;;;;;;;5.80;3.35;;;19.80;99.90;;;;;;4994878;28;20306;-67
2023/06/22 07:51:06;;;;;;;9.70;3.50;;;19.90;99.90;;;;;;4993787;28;20215;-67
2023/06/22 07:53:31;;;;;;;4.63;2.97;;;20.00;99.90;;;;;;4993854;28;20676;-68
2023/06/22 07:55:57;;;;;;;9.25;3.70;;;20.00;99.90;;;;;;4993971;28;20207;-67
2023/06/22 07:58:22;;;;;;;7.43;3.67;;;20.10;99.90;;;;;;4995315;28;20539;-67
2023/06/22 08:00:49;;;;;;;5.97;3.42;;;20.20;99.90;;;;;;5007219;28;20573;-67
2023/06/22 08:03:15;;;;;;;5.05;3.80;;;20.20;99.90;;;;;;4993826;28;20218;-68
2023/06/22 08:05:40;;;;;;;6.63;3.80;;;20.40;99.90;;;;;;4993880;28;20213;-68
2023/06/22 08:08:06;;;;;;;5.78;3.80;;;20.40;99.90;;;;;;4993767;28;20177;-68
2023/06/22 08:10:31;;;;;;;7.97;4.00;;;20.60;99.90;;;;;;4993591;28;20859;-68
2023/06/22 08:12:57;;;;;;;6.75;4.03;;;20.60;99.90;;;;;;4993867;28;20325;-68
2023/06/22 08:15:23;;;;;;;5.75;3.92;;;;;;;;;;4993492;28;20262;-68
2023/06/22 08:17:49;;;;;;;7.53;4.22;;;20.70;99.90;;;;;;4993675;28;20549;-68
2023/06/22 08:20:14;;;;;;;13.00;4.95;;;20.80;99.90;;;;;;4976086;28;20174;-67
2023/06/22 08:22:43;;;;;;;7.20;4.50;;;20.70;99.90;;;;;;4993594;28;20662;-69
2023/06/22 08:25:10;;;;;;;4.85;3.88;;;20.80;99.90;;;;;;4993530;28;20168;-68
2023/06/22 08:27:36;;;;;;;9.57;4.38;;;20.80;99.90;;;;;;4993567;28;20175;-68
2023/06/22 08:30:02;;;;;;;9.00;4.55;;;20.90;99.90;;;;;;4993461;28;20175;-69
2023/06/22 08:32:28;;;;;;;6.90;4.43;;;21.00;99.90;;;;;;4993407;28;20266;-69
2023/06/22 08:34:55;;;;;;;6.57;4.05;;;21.20;99.90;;;;;;4993419;28;20254;-68
2023/06/22 08:37:30;;;;;;;7.78;4.05;;;21.30;99.90;;;;;;4993062;28;20163;-67
2023/06/22 08:39:58;;;;;;;11.35;4.82;;;21.40;99.90;;;;;;4993120;28;20179;-67
2023/06/22 08:42:24;;;;;;;11.27;4.35;;;21.40;99.90;;;;;;4992902;28;20214;-68
2023/06/22 08:44:50;;;;;;;13.55;4.80;;;21.40;99.90;;;;;;4993120;28;20182;-67
2023/06/22 08:47:16;;;;;;;8.13;3.85;;;21.50;99.90;;;;;;4993137;28;20167;-67
2023/06/22 08:49:41;;;;;;;7.93;5.07;;;21.60;99.90;;;;;;4992900;28;20203;-67
2023/06/22 08:52:07;;;;;;;9.57;4.45;;;21.60;99.90;;;;;;4975629;28;20569;-67
2023/06/22 08:54:34;;;;;;;9.15;4.28;;;21.70;99.90;;;;;;4992732;28;20179;-67
2023/06/22 08:57:00;;;;;;;11.13;4.15;;;21.70;99.90;;;;;;4992162;28;20186;-67
2023/06/22 08:59:26;;;;;;;10.50;4.25;;;21.80;99.90;;;;;;4992980;28;20179;-66
2023/06/22 09:01:52;;;;;;;10.05;4.25;;;22.10;99.90;;;;;;4992832;28;20301;-67
2023/06/22 09:04:18;;;;;;;9.63;4.97;;;;;;;;;;4992725;28;20185;-67
2023/06/22 09:06:45;;;;;;;7.88;4.45;;;22.20;99.90;;;;;;4991845;28;20179;-67
2023/06/22 09:09:15;;;;;;;11.93;4.90;;;22.30;99.90;;;;;;4984214;28;20172;-68
2023/06/22 09:11:41;;;;;;;8.35;4.28;;;22.40;99.90;;;;;;4987583;28;20642;-68
2023/06/22 09:14:06;;;;;;;12.48;4.60;;;22.50;99.90;;;;;;4990825;28;20175;-67
2023/06/22 09:16:32;;;;;;;7.30;4.60;;;;;;;;;;4972904;28;20690;-67
2023/06/22 09:18:58;;;;;;;8.85;4.32;;;22.60;99.90;;;;;;4973047;28;20267;-68
2023/06/22 09:21:24;;;;;;;7.32;4.00;;;22.70;99.90;;;;;;4972988;28;20698;-69
2023/06/22 09:23:52;;;;;;;16.90;4.43;;;22.80;99.90;;;;;;4973435;28;20184;-68
2023/06/22 09:26:18;;;;;;;7.68;4.10;;;22.90;99.90;;;;;;4973472;28;20172;-68
2023/06/22 09:28:44;;;;;;;9.88;4.65;;;23.10;99.90;;;;;;4973428;28;20167;-66
2023/06/22 09:31:10;;;;;;;8.10;3.80;;;22.90;99.90;;;;;;4973469;28;20172;-68
2023/06/22 09:33:37;;;;;;;9.43;4.55;;;23.00;99.90;;;;;;4973435;28;20183;-69
2023/06/22 09:36:07;;;;;;;9.57;4.22;;;23.20;99.90;;;;;;4973286;28;20184;-69
2023/06/22 09:38:37;;;;;;;6.88;4.00;;;23.20;99.90;;;;;;4973190;28;20196;-68
2023/06/22 09:41:03;;;;;;;5.53;3.58;;;23.10;99.90;;;;;;4973369;28;20275;-68
2023/06/22 09:43:32;;;;;;;5.30;3.20;;;23.50;99.90;;;;;;4973205;28;20180;-68
2023/06/22 09:45:58;;;;;;;8.00;3.53;;;;;;;;;;4973025;28;20703;-66
2023/06/22 09:48:24;;;;;;;7.57;3.40;;;23.60;99.90;;;;;;4973003;28;20639;-68
2023/06/22 09:50:49;;;;;;;10.23;3.63;;;23.80;99.90;;;;;;4973043;28;20179;-69
2023/06/22 09:53:15;;;;;;;6.53;3.65;;;24.00;99.90;;;;;;4972964;28;20535;-68
2023/06/22 09:55:41;;;;;;;5.20;2.92;;;24.10;99.90;;;;;;4973200;28;20224;-68
2023/06/22 09:58:06;;;;;;;8.05;3.38;;;24.40;99.90;;;;;;4972947;28;20708;-68
2023/06/22 10:00:32;;;;;;;7.63;3.30;;;24.40;99.90;;;;;;4973026;28;20536;-67
2023/06/22 10:02:58;;;;;;;7.38;3.40;;;24.70;99.90;;;;;;4972912;28;20211;-68
2023/06/22 10:05:24;;;;;;;8.57;3.47;;;24.80;99.90;;;;;;4972936;28;20659;-68
2023/06/22 10:07:50;;;;;;;6.15;3.50;;;24.90;99.90;;;;;;4971815;28;20241;-68
2023/06/22 10:10:16;;;;;;;9.18;3.25;;;25.20;99.90;;;;;;4972804;28;20628;-68
2023/06/22 10:12:55;;;;;;;7.15;3.10;;;25.20;99.90;;;;;;4972719;28;20172;-69
2023/06/22 10:15:21;;;;;;;6.85;3.30;;;25.30;99.90;;;;;;4972499;28;20284;-68
2023/06/22 10:17:47;;;;;;;5.22;2.80;;;;;;;;;;4971423;28;20668;-67
2023/06/22 10:20:13;;;;;;;6.63;3.45;;;25.70;99.90;;;;;;4972568;28;20164;-67
2023/06/22 10:22:43;;;;;;;4.88;3.13;;;25.90;99.90;;;;;;4972864;28;20345;-68
2023/06/22 10:25:09;;;;;;;3.90;2.53;;;26.30;99.90;;;;;;4972629;28;20620;-68
2023/06/22 10:27:35;;;;;;;5.70;2.83;;;26.40;99.90;;;;;;4955301;28;20543;-68
2023/06/22 10:30:01;;;;;;;3.55;2.30;;;26.10;99.90;;;;;;4972453;28;20175;-69
2023/06/22 10:32:28;;;;;;;4.22;2.60;;;26.40;99.90;;;;;;4972404;28;20211;-68
2023/06/22 10:34:54;;;;;;;5.63;2.40;;;26.80;99.90;;;;;;4972187;28;20187;-69
2023/06/22 10:37:20;;;;;;;4.65;2.67;;;26.90;99.90;;;;;;4972296;28;20674;-68
2023/06/22 10:39:45;;;;;;;4.50;2.50;;;27.10;99.90;;;;;;4972292;28;20657;-68
2023/06/22 10:42:12;;;;;;;2.80;1.85;;;27.00;99.90;;;;;;4972187;28;20817;-69
2023/06/22 10:44:40;;;;;;;5.32;2.80;;;27.10;99.90;;;;;;4972326;28;20191;-68
2023/06/22 10:47:06;;;;;;;4.32;2.70;;;27.20;99.90;;;;;;4972267;28;20180;-68
2023/06/22 10:49:32;;;;;;;2.60;2.28;;;;;;;;;;4972011;28;20713;-68
2023/06/22 10:51:58;;;;;;;4.82;2.63;;;27.90;99.90;;;;;;4971956;28;20263;-67
2023/06/22 10:54:23;;;;;;;6.50;2.40;;;28.10;99.90;;;;;;4972158;28;20174;-67
2023/06/22 10:56:49;;;;;;;5.70;2.97;;;28.10;99.90;;;;;;4971874;28;20492;-68
2023/06/22 10:59:14;;;;;;;6.50;2.70;;;27.10;99.90;;;;;;4972026;28;20164;-68
2023/06/22 11:01:40;;;;;;;3.30;2.55;;;26.80;99.90;;;;;;4972002;28;20604;-68
2023/06/22 11:04:06;;;;;;;4.93;2.17;;;26.50;99.90;;;;;;4971913;28;20183;-67
2023/06/22 11:06:31;;;;;;;6.60;2.65;;;27.40;99.90;;;;;;4972030;28;20650;-68
2023/06/22 11:08:58;;;;;;;2.92;2.05;;;;;;;;;;4972073;28;20168;-68
2023/06/22 11:11:25;;;;;;;5.75;2.30;;;28.40;99.90;;;;;;4971236;28;20168;-68
2023/06/22 11:13:50;;;;;;;5.43;2.65;;;28.40;99.90;;;;;;4971599;28;20211;-67
2023/06/22 11:16:16;;;;;;;3.72;2.33;;;28.60;99.90;;;;;;4990585;28;20618;-67
2023/06/22 11:18:42;;;;;;;6.15;2.45;;;29.20;99.90;;;;;;4991892;28;20179;-67
2023/06/22 11:21:07;;;;;;;6.75;2.30;;;29.00;99.90;;;;;;4995096;28;20657;-68
2023/06/22 11:23:33;;;;;;;3.42;2.45;;;28.40;99.90;;;;;;4992285;28;20309;-68
2023/06/22 11:25:58;;;;;;;4.60;2.58;;;27.90;99.90;;;;;;4984908;28;20175;-68
2023/06/22 11:28:24;;;;;;;7.07;2.80;;;27.80;99.90;;;;;;4994392;28;20258;-68
2023/06/22 11:30:50;;;;;;;5.93;2.45;;;28.30;99.90;;;;;;4978345;28;20517;-67
2023/06/22 11:33:15;;;;;;;3.53;2.50;;;28.40;99.90;;;;;;4975169;28;20560;-67
2023/06/22 11:35:41;;;;;;;5.85;2.40;;;28.50;99.90;;;;;;4975161;28;20717;-67
2023/06/22 11:38:07;;;;;;;5.65;2.80;;;27.60;99.90;;;;;;4975407;28;20251;-67
2023/06/22 11:40:33;;;;;;;6.88;2.92;;;26.90;99.90;;;;;;4958010;28;20180;-67
2023/06/22 11:42:58;;;;;;;3.53;2.25;;;26.70;99.90;;;;;;4973933;28;20277;-68
2023/06/22 11:45:24;;;;;;;4.47;2.30;;;26.20;99.90;;;;;;4993901;28;20178;-68
2023/06/22 11:47:50;;;;;;;4.63;2.13;;;26.00;99.90;;;;;;4994454;28;20643;-68
2023/06/22 11:50:15;;;;;;;8.20;2.50;;;26.80;99.90;;;;;;4993980;28;20179;-67
2023/06/22 11:52:41;;;;;;;3.00;2.05;;;27.60;99.90;;;;;;4994162;28;20696;-67
2023/06/22 11:55:07;;;;;;;3.35;2.30;;;28.30;99.90;;;;;;4994341;28;20662;-66
2023/06/22 11:57:35;;;;;;;5.93;2.40;;;28.60;99.90;;;;;;4994605;28;20653;-65
2023/06/22 12:00:06;;;;;;;5.10;3.20;;;28.90;99.90;;;;;;4994409;28;20179;-67
2023/06/22 12:02:32;;;;;;;2.80;2.10;;;28.60;99.90;;;;;;4994253;28;20248;-67
2023/06/22 12:04:58;;;;;;;4.63;2.40;;;27.80;99.90;;;;;;4994304;28;20163;-67
2023/06/22 12:07:24;;;;;;;6.30;2.17;;;27.30;99.90;;;;;;4993704;28;20704;-67
2023/06/22 12:09:49;;;;;;;7.20;2.70;;;27.40;99.90;;;;;;4993259;28;20697;-67
2023/06/22 12:12:15;;;;;;;4.40;2.50;;;28.20;99.90;;;;;;4993625;28;20175;-68
2023/06/22 12:14:40;;;;;;;7.28;2.95;;;28.00;99.90;;;;;;4993953;28;20187;-67
2023/06/22 12:17:06;;;;;;;7.38;2.90;;;27.50;99.90;;;;;;4993518;28;20222;-68
2023/06/22 12:19:32;;;;;;;6.13;2.88;;;26.90;99.90;;;;;;4993581;28;20179;-66
2023/06/22 12:21:57;;;;;;;4.00;2.67;;;26.40;99.90;;;;;;4994047;28;20211;-68
2023/06/22 12:24:23;;;;;;;8.35;2.65;;;25.90;99.90;;;;;;4985509;28;20187;-68
2023/06/22 12:26:49;;;;;;;5.97;2.83;;;25.90;99.90;;;;;;4993251;28;20179;-67
2023/06/22 12:29:15;;;;;;;9.77;3.40;;;;;;;;;;4994048;28;20277;-70
2023/06/22 12:31:41;;;;;;;7.10;3.08;;;27.40;99.90;;;;;;4993704;28;20762;-71
2023/06/22 12:34:07;;;;;;;8.68;3.05;;;28.10;99.90;;;;;;4993511;28;20677;-71
2023/06/22 12:36:32;;;;;;;6.30;2.78;;;28.40;99.90;;;;;;4993685;28;20170;-71
2023/06/22 12:38:58;;;;;;;6.22;2.80;;;28.00;99.90;;;;;;4993533;28;20171;-71
2023/06/22 12:41:23;;;;;;;6.30;3.13;;;27.40;99.90;;;;;;5000165;28;20198;-71